AirNav   SIMCOM
 
 1002 users online  

29LL Monroe County Ambulance Service Heliport
Waterloo, Illinois, USA

GOING TO WATERLOO?


FAA INFORMATION EFFECTIVE 20 JULY 2017

Location

FAA Identifier: 29LL
Lat/Long: 38-20-21.4000N / 090-09-49.9000W
38-20.356667N / 090-09.831667W
38.3392778 / -90.1638611
(estimated)
Elevation: 630 ft. / 192 m (estimated)
Variation: 00E (2000)
From city: 1 mile W of WATERLOO, IL
Time zone: UTC -5 (UTC -6 during Standard Time)
Zip code: 62298

Heliport Operations

Heliport use: Private use. Permission required prior to landing
Activation date: 02/2001
Control tower: no
ARTCC: KANSAS CITY CENTER
FSS: SAINT LOUIS FLIGHT SERVICE STATION
Attendance: CONTINUOUS
Segmented circle: no

Heliport Communications

WX ASOS at CPS (14 nm N): PHONE 618-332-0001

Nearby radio navigation aids

VOR radial/distance  VOR name  Freq  Var
CSXr160/26.5CARDINAL VOR/DME116.4500E
TOYr202/26.6TROY VORTAC116.0004E
STLr153/34.7ST LOUIS VORTAC117.4001E

 
NDB name  Hdg/Dist  Freq  Var  ID
ACORE204/11.935000WCP -.-. .--.
CIVIC MEMORIAL190/33.626301WCVM -.-. ...- --

Heliport Services

Runway Information

Helipad H1

Dimensions: 40 x 40 ft. / 12 x 12 m
Surface: asphalt
Latitude: 38-20.340000N
Longitude: 090-09.831667W
Elevation: 630.0 ft.
Traffic pattern: leftleft

Heliport Ownership and Management from official FAA records

Ownership: Privately-owned
Owner: MONROE COUNTY
100 S MAIN ST
WATERLOO, IL 62298
Phone 618-939-8681
Manager: CARLA HEISE
901 ILLINOIS AVE
WATERLOO, IL 62298
Phone 618-939-6175

Additional Remarks

A52-H1 MKD POWERLINE 270 FT & 235 FT S, BLDG 125 FT E & TREES 105 FT N.

Instrument Procedures

There are no published instrument procedures at 29LL.

Some nearby airports with instrument procedures:

KFES - Festus Memorial Airport (14 nm SW)
KCPS - St Louis Downtown Airport (14 nm N)
KBLV - Scott Air Force Base/MidAmerica Airport (20 nm NE)
KSAR - Sparta Community Airport-Hunter Field (25 nm SE)
KSTL - Lambert-St Louis International Airport (26 nm N)
 
Loc | Ops | Rwys | IFR | FBO | Links
Com | Nav | Svcs | Stats | Notes


 
Area around 29LL (Monroe County Ambulance Service Heliport)
 
Road maps at: MapQuest Bing Google
 
Aerial photo
No photo
 
Sectional chart

 
Airport distance calculator
Flying to Monroe County Ambulance Service Heliport? Find the distance to fly.

From to 29LL

Sunrise and sunset
Times for 24-Jul-2017
 Local
(UTC-5)
 Zulu
(UTC)
Morning civil twilight05:2710:27
Sunrise05:5710:57
Sunset20:1701:17
Evening civil twilight20:4701:47

Current date and time
Zulu (UTC)  25-Jul-2017 02:14:53
Local (UTC-5)  24-Jul-2017 21:14:53
 
METAR
KCPS 
14nm N 
250153Z 07003KT 10SM CLR 26/19 A2998 RMK AO2 SLP149 T02610194
KBLV 
19nm NE 
250158Z AUTO 03003KT 10SM CLR 26/21 A2999 RMK AO2 SLP155 T02610207 $
KSAR 
25nm SE 
250155Z AUTO 04003KT 10SM CLR 26/20 A2999 RMK AO2 T02560202
KSTL 
26nm N 
250151Z 05008KT 10SM CLR 28/21 A3000 RMK AO2 SLP144 T02830206
TAF
KCPS 
14nm N 
241720Z 2418/2518 36006KT P6SM FEW045 FM250100 04004KT P6SM FEW100 FM251600 10005KT P6SM SCT070
KBLV 
19nm NE 
250000Z 2500/2606 04009KT 9999 SCT050 QNH2995INS WND 09009KT AFT 2506 TX33/2521Z TN21/2512Z
NOTAMs
Click for the latest NOTAMs
NOTAMs are issued by the DoD/FAA and will open in a separate window not controlled by AirNav.

 

 
 

Would you like to see your business listed on this page?

 If your business provides an interesting product or service to pilots, flight crews, aircraft, or users of the Monroe County Ambulance Service Heliport, you should consider listing it here.  To start the listing process, click on the button below
 
Add a business
 

Other Pages about Monroe County Ambulance Service Heliport

Update a link
 
Copyright © AirNav, LLC. All rights reserved. Privacy Policy  Contact